sensor_id;sensor_type;location;lat;lon;timestamp;P1;durP1;ratioP1;P2;durP2;ratioP2
15258;SDS011;34462;51.368;12.364;2024-02-21T00:00:24;9.47;;;4.10;;
15258;SDS011;34462;51.368;12.364;2024-02-21T00:02:52;10.00;;;3.30;;
15258;SDS011;34462;51.368;12.364;2024-02-21T00:05:23;7.90;;;3.17;;
15258;SDS011;34462;51.368;12.364;2024-02-21T00:07:52;7.93;;;3.83;;
15258;SDS011;34462;51.368;12.364;2024-02-21T00:10:21;8.23;;;3.33;;
15258;SDS011;34462;51.368;12.364;2024-02-21T00:12:50;8.93;;;3.60;;
15258;SDS011;34462;51.368;12.364;2024-02-21T00:15:18;9.37;;;3.80;;
15258;SDS011;34462;51.368;12.364;2024-02-21T00:17:47;10.27;;;4.00;;
15258;SDS011;34462;51.368;12.364;2024-02-21T00:20:19;8.57;;;3.60;;
15258;SDS011;34462;51.368;12.364;2024-02-21T00:22:53;12.57;;;3.90;;
15258;SDS011;34462;51.368;12.364;2024-02-21T00:25:21;6.83;;;3.10;;
15258;SDS011;34462;51.368;12.364;2024-02-21T00:27:53;13.20;;;3.77;;
15258;SDS011;34462;51.368;12.364;2024-02-21T00:30:21;10.73;;;3.70;;
15258;SDS011;34462;51.368;12.364;2024-02-21T00:32:49;9.57;;;4.00;;
15258;SDS011;34462;51.368;12.364;2024-02-21T00:35:18;11.30;;;3.67;;
15258;SDS011;34462;51.368;12.364;2024-02-21T00:37:46;6.93;;;3.67;;
15258;SDS011;34462;51.368;12.364;2024-02-21T00:40:16;7.77;;;3.47;;
15258;SDS011;34462;51.368;12.364;2024-02-21T00:42:46;9.43;;;3.33;;
15258;SDS011;34462;51.368;12.364;2024-02-21T00:45:19;11.90;;;3.50;;
15258;SDS011;34462;51.368;12.364;2024-02-21T00:47:47;9.90;;;3.20;;
15258;SDS011;34462;51.368;12.364;2024-02-21T00:50:15;11.07;;;4.13;;
15258;SDS011;34462;51.368;12.364;2024-02-21T00:52:44;8.67;;;3.27;;
15258;SDS011;34462;51.368;12.364;2024-02-21T00:55:13;8.87;;;3.80;;
15258;SDS011;34462;51.368;12.364;2024-02-21T00:57:43;9.03;;;3.53;;
15258;SDS011;34462;51.368;12.364;2024-02-21T01:00:11;7.63;;;3.23;;
15258;SDS011;34462;51.368;12.364;2024-02-21T01:02:40;9.93;;;3.80;;
15258;SDS011;34462;51.368;12.364;2024-02-21T01:05:11;8.47;;;3.70;;
15258;SDS011;34462;51.368;12.364;2024-02-21T01:07:40;8.97;;;3.50;;
15258;SDS011;34462;51.368;12.364;2024-02-21T01:10:09;8.33;;;3.63;;
15258;SDS011;34462;51.368;12.364;2024-02-21T01:12:42;8.73;;;3.67;;
15258;SDS011;34462;51.368;12.364;2024-02-21T01:15:10;9.70;;;3.57;;
15258;SDS011;34462;51.368;12.364;2024-02-21T01:17:39;11.33;;;3.70;;
15258;SDS011;34462;51.368;12.364;2024-02-21T01:20:11;10.50;;;3.67;;
15258;SDS011;34462;51.368;12.364;2024-02-21T01:22:40;9.30;;;3.80;;
15258;SDS011;34462;51.368;12.364;2024-02-21T01:25:12;8.57;;;3.30;;
15258;SDS011;34462;51.368;12.364;2024-02-21T01:27:42;10.60;;;4.10;;
15258;SDS011;34462;51.368;12.364;2024-02-21T01:30:12;7.03;;;3.30;;
15258;SDS011;34462;51.368;12.364;2024-02-21T01:32:41;10.13;;;3.70;;
15258;SDS011;34462;51.368;12.364;2024-02-21T01:35:09;8.60;;;3.50;;
15258;SDS011;34462;51.368;12.364;2024-02-21T01:37:38;7.30;;;3.50;;
15258;SDS011;34462;51.368;12.364;2024-02-21T01:40:06;9.87;;;3.93;;
15258;SDS011;34462;51.368;12.364;2024-02-21T01:42:41;10.00;;;3.80;;
15258;SDS011;34462;51.368;12.364;2024-02-21T01:45:11;10.90;;;4.03;;
15258;SDS011;34462;51.368;12.364;2024-02-21T01:47:44;7.27;;;3.63;;
15258;SDS011;34462;51.368;12.364;2024-02-21T01:50:13;9.13;;;3.83;;
15258;SDS011;34462;51.368;12.364;2024-02-21T01:52:45;9.60;;;4.43;;
15258;SDS011;34462;51.368;12.364;2024-02-21T01:55:19;10.27;;;3.80;;
15258;SDS011;34462;51.368;12.364;2024-02-21T01:57:51;9.53;;;3.63;;
15258;SDS011;34462;51.368;12.364;2024-02-21T02:00:21;8.03;;;3.73;;
15258;SDS011;34462;51.368;12.364;2024-02-21T02:02:52;8.43;;;3.57;;
15258;SDS011;34462;51.368;12.364;2024-02-21T02:05:22;10.00;;;3.53;;
15258;SDS011;34462;51.368;12.364;2024-02-21T02:07:53;9.20;;;3.50;;
15258;SDS011;34462;51.368;12.364;2024-02-21T02:10:21;10.50;;;3.90;;
15258;SDS011;34462;51.368;12.364;2024-02-21T02:12:53;8.47;;;3.57;;
15258;SDS011;34462;51.368;12.364;2024-02-21T02:15:21;12.17;;;4.20;;
15258;SDS011;34462;51.368;12.364;2024-02-21T02:17:49;8.30;;;3.57;;
15258;SDS011;34462;51.368;12.364;2024-02-21T02:20:18;8.83;;;3.60;;
15258;SDS011;34462;51.368;12.364;2024-02-21T02:22:46;8.10;;;4.03;;
15258;SDS011;34462;51.368;12.364;2024-02-21T02:25:18;8.33;;;3.33;;
15258;SDS011;34462;51.368;12.364;2024-02-21T02:27:47;8.60;;;3.87;;
15258;SDS011;34462;51.368;12.364;2024-02-21T02:30:15;11.03;;;4.20;;
15258;SDS011;34462;51.368;12.364;2024-02-21T02:32:44;10.67;;;4.10;;
15258;SDS011;34462;51.368;12.364;2024-02-21T02:35:14;10.83;;;3.87;;
15258;SDS011;34462;51.368;12.364;2024-02-21T02:37:47;8.67;;;4.07;;
15258;SDS011;34462;51.368;12.364;2024-02-21T02:40:22;6.50;;;3.70;;
15258;SDS011;34462;51.368;12.364;2024-02-21T02:42:51;9.87;;;3.73;;
15258;SDS011;34462;51.368;12.364;2024-02-21T02:45:21;10.07;;;3.83;;
15258;SDS011;34462;51.368;12.364;2024-02-21T02:47:52;9.87;;;3.83;;
15258;SDS011;34462;51.368;12.364;2024-02-21T02:50:23;7.97;;;3.30;;
15258;SDS011;34462;51.368;12.364;2024-02-21T02:52:52;10.83;;;3.60;;
15258;SDS011;34462;51.368;12.364;2024-02-21T02:55:22;11.00;;;3.70;;
15258;SDS011;34462;51.368;12.364;2024-02-21T02:57:52;8.63;;;3.67;;
15258;SDS011;34462;51.368;12.364;2024-02-21T03:00:20;11.67;;;4.23;;
15258;SDS011;34462;51.368;12.364;2024-02-21T03:02:49;7.37;;;3.53;;
15258;SDS011;34462;51.368;12.364;2024-02-21T03:05:19;8.20;;;4.07;;
15258;SDS011;34462;51.368;12.364;2024-02-21T03:07:49;7.20;;;3.70;;
15258;SDS011;34462;51.368;12.364;2024-02-21T03:10:17;8.53;;;4.07;;
15258;SDS011;34462;51.368;12.364;2024-02-21T03:12:47;5.50;;;3.50;;
15258;SDS011;34462;51.368;12.364;2024-02-21T03:15:15;8.17;;;3.90;;
15258;SDS011;34462;51.368;12.364;2024-02-21T03:17:44;8.77;;;3.63;;
15258;SDS011;34462;51.368;12.364;2024-02-21T03:20:13;7.83;;;4.00;;
15258;SDS011;34462;51.368;12.364;2024-02-21T03:22:41;7.50;;;3.87;;
15258;SDS011;34462;51.368;12.364;2024-02-21T03:25:11;7.53;;;4.13;;
15258;SDS011;34462;51.368;12.364;2024-02-21T03:27:41;8.37;;;3.70;;
15258;SDS011;34462;51.368;12.364;2024-02-21T03:30:12;7.40;;;3.57;;
15258;SDS011;34462;51.368;12.364;2024-02-21T03:32:41;6.73;;;3.67;;
15258;SDS011;34462;51.368;12.364;2024-02-21T03:35:10;8.80;;;3.67;;
15258;SDS011;34462;51.368;12.364;2024-02-21T03:37:41;8.40;;;3.90;;
15258;SDS011;34462;51.368;12.364;2024-02-21T03:40:10;9.87;;;4.07;;
15258;SDS011;34462;51.368;12.364;2024-02-21T03:42:38;11.57;;;4.10;;
15258;SDS011;34462;51.368;12.364;2024-02-21T03:45:07;8.67;;;3.87;;
15258;SDS011;34462;51.368;12.364;2024-02-21T03:47:41;8.33;;;3.93;;
15258;SDS011;34462;51.368;12.364;2024-02-21T03:50:09;9.30;;;3.60;;
15258;SDS011;34462;51.368;12.364;2024-02-21T03:52:38;9.20;;;3.53;;
15258;SDS011;34462;51.368;12.364;2024-02-21T03:55:07;8.10;;;3.70;;
15258;SDS011;34462;51.368;12.364;2024-02-21T03:57:40;7.17;;;3.43;;
15258;SDS011;34462;51.368;12.364;2024-02-21T04:00:08;9.40;;;3.97;;
15258;SDS011;34462;51.368;12.364;2024-02-21T04:02:42;9.53;;;4.17;;
15258;SDS011;34462;51.368;12.364;2024-02-21T04:05:10;11.27;;;4.10;;
15258;SDS011;34462;51.368;12.364;2024-02-21T04:07:38;6.87;;;3.83;;
15258;SDS011;34462;51.368;12.364;2024-02-21T04:10:07;9.47;;;4.00;;
15258;SDS011;34462;51.368;12.364;2024-02-21T04:12:37;9.83;;;4.10;;
15258;SDS011;34462;51.368;12.364;2024-02-21T04:15:06;7.57;;;4.00;;
15258;SDS011;34462;51.368;12.364;2024-02-21T04:17:41;10.03;;;4.93;;
15258;SDS011;34462;51.368;12.364;2024-02-21T04:20:13;7.20;;;3.77;;
15258;SDS011;34462;51.368;12.364;2024-02-21T04:22:43;10.57;;;4.23;;
15258;SDS011;34462;51.368;12.364;2024-02-21T04:25:12;8.50;;;4.33;;
15258;SDS011;34462;51.368;12.364;2024-02-21T04:27:40;7.23;;;4.03;;
15258;SDS011;34462;51.368;12.364;2024-02-21T04:30:10;8.43;;;3.90;;
15258;SDS011;34462;51.368;12.364;2024-02-21T04:32:43;9.67;;;3.53;;
15258;SDS011;34462;51.368;12.364;2024-02-21T04:35:12;8.77;;;3.90;;
15258;SDS011;34462;51.368;12.364;2024-02-21T04:37:40;12.07;;;4.17;;
15258;SDS011;34462;51.368;12.364;2024-02-21T04:40:09;9.20;;;4.57;;
15258;SDS011;34462;51.368;12.364;2024-02-21T04:42:39;8.47;;;3.83;;
15258;SDS011;34462;51.368;12.364;2024-02-21T04:45:07;8.03;;;4.47;;
15258;SDS011;34462;51.368;12.364;2024-02-21T04:47:38;12.47;;;4.73;;
15258;SDS011;34462;51.368;12.364;2024-02-21T04:50:08;13.63;;;4.87;;
15258;SDS011;34462;51.368;12.364;2024-02-21T04:52:37;8.83;;;4.50;;
15258;SDS011;34462;51.368;12.364;2024-02-21T04:55:05;9.50;;;4.63;;
15258;SDS011;34462;51.368;12.364;2024-02-21T04:57:34;11.20;;;4.20;;
15258;SDS011;34462;51.368;12.364;2024-02-21T05:00:02;9.67;;;4.63;;
15258;SDS011;34462;51.368;12.364;2024-02-21T05:02:32;7.57;;;4.10;;
15258;SDS011;34462;51.368;12.364;2024-02-21T05:05:00;10.77;;;4.60;;
15258;SDS011;34462;51.368;12.364;2024-02-21T05:07:32;8.00;;;4.20;;
15258;SDS011;34462;51.368;12.364;2024-02-21T05:10:03;8.43;;;4.43;;
15258;SDS011;34462;51.368;12.364;2024-02-21T05:12:33;7.33;;;4.43;;
15258;SDS011;34462;51.368;12.364;2024-02-21T05:15:01;11.90;;;5.13;;
15258;SDS011;34462;51.368;12.364;2024-02-21T05:17:30;9.80;;;5.07;;
15258;SDS011;34462;51.368;12.364;2024-02-21T05:19:58;11.53;;;6.90;;
15258;SDS011;34462;51.368;12.364;2024-02-21T05:22:27;10.77;;;5.87;;
15258;SDS011;34462;51.368;12.364;2024-02-21T05:25:02;9.23;;;5.30;;
15258;SDS011;34462;51.368;12.364;2024-02-21T05:27:33;9.87;;;5.10;;
15258;SDS011;34462;51.368;12.364;2024-02-21T05:30:03;9.07;;;5.33;;
15258;SDS011;34462;51.368;12.364;2024-02-21T05:32:33;8.07;;;4.10;;
15258;SDS011;34462;51.368;12.364;2024-02-21T05:35:02;10.37;;;4.40;;
15258;SDS011;34462;51.368;12.364;2024-02-21T05:37:31;8.33;;;4.30;;
15258;SDS011;34462;51.368;12.364;2024-02-21T05:39:59;10.43;;;4.67;;
15258;SDS011;34462;51.368;12.364;2024-02-21T05:42:29;12.10;;;4.67;;
15258;SDS011;34462;51.368;12.364;2024-02-21T05:44:58;11.13;;;4.07;;
15258;SDS011;34462;51.368;12.364;2024-02-21T05:47:26;8.27;;;4.50;;
15258;SDS011;34462;51.368;12.364;2024-02-21T05:49:56;5.40;;;3.97;;
15258;SDS011;34462;51.368;12.364;2024-02-21T05:52:24;11.03;;;4.83;;
15258;SDS011;34462;51.368;12.364;2024-02-21T05:54:54;11.07;;;4.17;;
15258;SDS011;34462;51.368;12.364;2024-02-21T05:57:22;8.07;;;4.07;;
15258;SDS011;34462;51.368;12.364;2024-02-21T05:59:51;9.03;;;4.17;;
15258;SDS011;34462;51.368;12.364;2024-02-21T06:02:20;7.70;;;4.10;;
15258;SDS011;34462;51.368;12.364;2024-02-21T06:04:48;9.03;;;4.30;;
15258;SDS011;34462;51.368;12.364;2024-02-21T06:07:17;9.27;;;3.97;;
15258;SDS011;34462;51.368;12.364;2024-02-21T06:09:45;8.77;;;4.20;;
15258;SDS011;34462;51.368;12.364;2024-02-21T06:12:13;9.30;;;4.40;;
15258;SDS011;34462;51.368;12.364;2024-02-21T06:14:42;10.70;;;4.10;;
15258;SDS011;34462;51.368;12.364;2024-02-21T06:17:11;9.83;;;4.23;;
15258;SDS011;34462;51.368;12.364;2024-02-21T06:19:39;8.00;;;4.10;;
15258;SDS011;34462;51.368;12.364;2024-02-21T06:22:11;10.20;;;4.50;;
15258;SDS011;34462;51.368;12.364;2024-02-21T06:24:39;9.90;;;5.13;;
15258;SDS011;34462;51.368;12.364;2024-02-21T06:27:08;9.70;;;4.50;;
15258;SDS011;34462;51.368;12.364;2024-02-21T06:29:37;12.37;;;4.97;;
15258;SDS011;34462;51.368;12.364;2024-02-21T06:32:05;9.50;;;4.53;;
15258;SDS011;34462;51.368;12.364;2024-02-21T06:34:35;7.87;;;4.37;;
15258;SDS011;34462;51.368;12.364;2024-02-21T06:37:03;7.60;;;4.27;;
15258;SDS011;34462;51.368;12.364;2024-02-21T06:39:33;7.40;;;4.20;;
15258;SDS011;34462;51.368;12.364;2024-02-21T06:42:03;12.60;;;4.80;;
15258;SDS011;34462;51.368;12.364;2024-02-21T06:44:32;9.87;;;4.83;;
15258;SDS011;34462;51.368;12.364;2024-02-21T06:47:03;7.57;;;4.30;;
15258;SDS011;34462;51.368;12.364;2024-02-21T06:49:31;9.93;;;5.13;;
15258;SDS011;34462;51.368;12.364;2024-02-21T06:52:01;9.03;;;4.80;;
15258;SDS011;34462;51.368;12.364;2024-02-21T06:54:31;10.40;;;4.40;;
15258;SDS011;34462;51.368;12.364;2024-02-21T06:57:00;6.17;;;4.50;;
15258;SDS011;34462;51.368;12.364;2024-02-21T06:59:30;10.03;;;4.87;;
15258;SDS011;34462;51.368;12.364;2024-02-21T07:01:58;8.03;;;5.17;;
15258;SDS011;34462;51.368;12.364;2024-02-21T07:04:27;8.63;;;4.37;;
15258;SDS011;34462;51.368;12.364;2024-02-21T07:06:56;6.97;;;4.17;;
15258;SDS011;34462;51.368;12.364;2024-02-21T07:09:26;11.20;;;4.23;;
15258;SDS011;34462;51.368;12.364;2024-02-21T07:11:56;8.90;;;4.57;;
15258;SDS011;34462;51.368;12.364;2024-02-21T07:14:24;8.40;;;4.40;;
15258;SDS011;34462;51.368;12.364;2024-02-21T07:16:52;8.53;;;4.70;;
15258;SDS011;34462;51.368;12.364;2024-02-21T07:19:21;7.67;;;5.13;;
15258;SDS011;34462;51.368;12.364;2024-02-21T07:21:50;9.87;;;5.70;;
15258;SDS011;34462;51.368;12.364;2024-02-21T07:24:18;11.33;;;5.67;;
15258;SDS011;34462;51.368;12.364;2024-02-21T07:26:48;11.33;;;5.67;;
15258;SDS011;34462;51.368;12.364;2024-02-21T07:29:17;14.07;;;6.93;;
15258;SDS011;34462;51.368;12.364;2024-02-21T07:31:45;10.23;;;6.17;;
15258;SDS011;34462;51.368;12.364;2024-02-21T07:34:15;13.20;;;6.37;;
15258;SDS011;34462;51.368;12.364;2024-02-21T07:36:44;11.43;;;6.60;;
15258;SDS011;34462;51.368;12.364;2024-02-21T07:39:12;10.17;;;5.73;;
15258;SDS011;34462;51.368;12.364;2024-02-21T07:41:40;8.67;;;6.03;;
15258;SDS011;34462;51.368;12.364;2024-02-21T07:44:12;9.73;;;6.07;;
15258;SDS011;34462;51.368;12.364;2024-02-21T07:46:40;8.43;;;5.73;;
15258;SDS011;34462;51.368;12.364;2024-02-21T07:49:09;13.73;;;5.93;;
15258;SDS011;34462;51.368;12.364;2024-02-21T07:51:37;10.33;;;6.43;;
15258;SDS011;34462;51.368;12.364;2024-02-21T07:54:05;10.33;;;5.80;;
15258;SDS011;34462;51.368;12.364;2024-02-21T07:56:36;9.70;;;5.73;;
15258;SDS011;34462;51.368;12.364;2024-02-21T07:59:04;10.50;;;6.33;;
15258;SDS011;34462;51.368;12.364;2024-02-21T08:01:35;8.03;;;5.60;;
15258;SDS011;34462;51.368;12.364;2024-02-21T08:04:03;12.30;;;6.20;;
15258;SDS011;34462;51.368;12.364;2024-02-21T08:06:32;8.40;;;5.90;;
15258;SDS011;34462;51.368;12.364;2024-02-21T08:09:00;11.33;;;6.27;;
15258;SDS011;34462;51.368;12.364;2024-02-21T08:11:29;10.77;;;6.60;;
15258;SDS011;34462;51.368;12.364;2024-02-21T08:13:58;11.37;;;6.17;;
15258;SDS011;34462;51.368;12.364;2024-02-21T08:16:27;8.33;;;6.00;;
15258;SDS011;34462;51.368;12.364;2024-02-21T08:18:57;11.63;;;6.10;;
15258;SDS011;34462;51.368;12.364;2024-02-21T08:21:26;11.57;;;6.00;;
15258;SDS011;34462;51.368;12.364;2024-02-21T08:23:54;10.43;;;5.73;;
15258;SDS011;34462;51.368;12.364;2024-02-21T08:26:23;11.00;;;6.07;;
15258;SDS011;34462;51.368;12.364;2024-02-21T08:28:53;11.43;;;6.27;;
15258;SDS011;34462;51.368;12.364;2024-02-21T08:31:22;9.77;;;6.30;;
15258;SDS011;34462;51.368;12.364;2024-02-21T08:33:51;9.43;;;6.00;;
15258;SDS011;34462;51.368;12.364;2024-02-21T08:36:20;7.67;;;5.10;;
15258;SDS011;34462;51.368;12.364;2024-02-21T08:38:50;11.83;;;6.37;;
15258;SDS011;34462;51.368;12.364;2024-02-21T08:41:19;11.03;;;5.83;;
15258;SDS011;34462;51.368;12.364;2024-02-21T08:43:55;8.70;;;5.10;;
15258;SDS011;34462;51.368;12.364;2024-02-21T08:46:24;12.00;;;5.87;;
15258;SDS011;34462;51.368;12.364;2024-02-21T08:48:53;8.37;;;5.20;;
15258;SDS011;34462;51.368;12.364;2024-02-21T08:51:24;10.83;;;5.13;;
15258;SDS011;34462;51.368;12.364;2024-02-21T08:53:53;9.53;;;5.17;;
15258;SDS011;34462;51.368;12.364;2024-02-21T08:56:21;8.97;;;5.10;;
15258;SDS011;34462;51.368;12.364;2024-02-21T08:58:49;9.23;;;5.50;;
15258;SDS011;34462;51.368;12.364;2024-02-21T09:01:18;10.83;;;5.60;;
15258;SDS011;34462;51.368;12.364;2024-02-21T09:03:47;11.43;;;5.77;;
15258;SDS011;34462;51.368;12.364;2024-02-21T09:06:19;9.60;;;5.73;;
15258;SDS011;34462;51.368;12.364;2024-02-21T09:08:49;10.40;;;6.00;;
15258;SDS011;34462;51.368;12.364;2024-02-21T09:11:17;8.67;;;5.97;;
15258;SDS011;34462;51.368;12.364;2024-02-21T09:13:46;9.17;;;5.70;;
15258;SDS011;34462;51.368;12.364;2024-02-21T09:16:14;11.13;;;5.73;;
15258;SDS011;34462;51.368;12.364;2024-02-21T09:18:42;10.90;;;5.83;;
15258;SDS011;34462;51.368;12.364;2024-02-21T09:21:11;7.70;;;5.63;;
15258;SDS011;34462;51.368;12.364;2024-02-21T09:23:39;9.10;;;5.33;;
15258;SDS011;34462;51.368;12.364;2024-02-21T09:26:08;10.30;;;5.67;;
15258;SDS011;34462;51.368;12.364;2024-02-21T09:28:40;10.63;;;5.53;;
15258;SDS011;34462;51.368;12.364;2024-02-21T09:31:09;7.87;;;5.43;;
15258;SDS011;34462;51.368;12.364;2024-02-21T09:33:37;8.43;;;5.37;;
15258;SDS011;34462;51.368;12.364;2024-02-21T09:36:05;10.07;;;5.73;;
15258;SDS011;34462;51.368;12.364;2024-02-21T09:38:34;9.50;;;5.73;;
15258;SDS011;34462;51.368;12.364;2024-02-21T09:41:04;11.07;;;6.17;;
15258;SDS011;34462;51.368;12.364;2024-02-21T09:43:49;8.87;;;5.77;;
15258;SDS011;34462;51.368;12.364;2024-02-21T09:46:21;12.17;;;5.87;;
15258;SDS011;34462;51.368;12.364;2024-02-21T09:49:04;10.40;;;6.07;;
15258;SDS011;34462;51.368;12.364;2024-02-21T09:51:49;10.30;;;5.50;;
15258;SDS011;34462;51.368;12.364;2024-02-21T09:54:21;10.13;;;5.90;;
15258;SDS011;34462;51.368;12.364;2024-02-21T09:56:51;11.93;;;6.47;;
15258;SDS011;34462;51.368;12.364;2024-02-21T09:59:19;10.63;;;6.00;;
15258;SDS011;34462;51.368;12.364;2024-02-21T10:01:48;11.80;;;5.80;;
15258;SDS011;34462;51.368;12.364;2024-02-21T10:04:17;8.90;;;5.50;;
15258;SDS011;34462;51.368;12.364;2024-02-21T10:06:46;8.87;;;5.90;;
15258;SDS011;34462;51.368;12.364;2024-02-21T10:09:21;12.17;;;6.37;;
15258;SDS011;34462;51.368;12.364;2024-02-21T10:11:52;10.57;;;5.70;;
15258;SDS011;34462;51.368;12.364;2024-02-21T10:14:20;12.93;;;6.13;;
15258;SDS011;34462;51.368;12.364;2024-02-21T10:16:56;9.97;;;5.23;;
15258;SDS011;34462;51.368;12.364;2024-02-21T10:19:26;10.17;;;5.10;;
15258;SDS011;34462;51.368;12.364;2024-02-21T10:21:59;10.30;;;5.40;;
15258;SDS011;34462;51.368;12.364;2024-02-21T10:24:30;8.97;;;5.13;;
15258;SDS011;34462;51.368;12.364;2024-02-21T10:27:02;10.55;;;5.05;;
15258;SDS011;34462;51.368;12.364;2024-02-21T10:29:34;9.80;;;4.87;;
15258;SDS011;34462;51.368;12.364;2024-02-21T10:32:04;10.17;;;5.67;;
15258;SDS011;34462;51.368;12.364;2024-02-21T10:34:34;10.47;;;5.33;;
15258;SDS011;34462;51.368;12.364;2024-02-21T10:37:03;10.23;;;5.50;;
15258;SDS011;34462;51.368;12.364;2024-02-21T10:39:33;8.87;;;5.70;;
15258;SDS011;34462;51.368;12.364;2024-02-21T10:42:06;8.63;;;5.10;;
15258;SDS011;34462;51.368;12.364;2024-02-21T10:44:40;10.07;;;5.80;;
15258;SDS011;34462;51.368;12.364;2024-02-21T10:47:09;7.90;;;5.07;;
15258;SDS011;34462;51.368;12.364;2024-02-21T10:49:40;11.00;;;5.00;;
15258;SDS011;34462;51.368;12.364;2024-02-21T10:52:14;7.90;;;5.10;;
15258;SDS011;34462;51.368;12.364;2024-02-21T10:54:55;10.43;;;5.60;;
15258;SDS011;34462;51.368;12.364;2024-02-21T10:57:33;8.67;;;5.83;;
15258;SDS011;34462;51.368;12.364;2024-02-21T11:00:05;9.43;;;4.97;;
15258;SDS011;34462;51.368;12.364;2024-02-21T11:02:38;9.27;;;5.03;;
15258;SDS011;34462;51.368;12.364;2024-02-21T11:05:08;9.63;;;5.43;;
15258;SDS011;34462;51.368;12.364;2024-02-21T11:07:37;8.85;;;4.30;;
15258;SDS011;34462;51.368;12.364;2024-02-21T11:10:19;10.80;;;4.93;;
15258;SDS011;34462;51.368;12.364;2024-02-21T11:12:53;7.93;;;4.37;;
15258;SDS011;34462;51.368;12.364;2024-02-21T11:15:33;8.00;;;4.40;;
15258;SDS011;34462;51.368;12.364;2024-02-21T11:18:02;7.97;;;4.47;;
15258;SDS011;34462;51.368;12.364;2024-02-21T11:20:34;7.43;;;4.40;;
15258;SDS011;34462;51.368;12.364;2024-02-21T11:23:05;6.93;;;4.33;;
15258;SDS011;34462;51.368;12.364;2024-02-21T11:25:33;6.33;;;4.43;;
15258;SDS011;34462;51.368;12.364;2024-02-21T11:28:03;9.23;;;4.10;;
15258;SDS011;34462;51.368;12.364;2024-02-21T11:30:34;6.00;;;4.00;;
15258;SDS011;34462;51.368;12.364;2024-02-21T11:33:05;6.83;;;3.83;;
15258;SDS011;34462;51.368;12.364;2024-02-21T11:35:34;6.30;;;4.10;;
15258;SDS011;34462;51.368;12.364;2024-02-21T11:38:07;4.63;;;3.53;;
15258;SDS011;34462;51.368;12.364;2024-02-21T11:40:41;6.03;;;3.27;;
15258;SDS011;34462;51.368;12.364;2024-02-21T11:43:15;4.37;;;3.03;;
15258;SDS011;34462;51.368;12.364;2024-02-21T11:45:43;5.13;;;3.20;;
15258;SDS011;34462;51.368;12.364;2024-02-21T11:48:11;5.30;;;3.40;;
15258;SDS011;34462;51.368;12.364;2024-02-21T11:50:41;6.25;;;3.63;;
15258;SDS011;34462;51.368;12.364;2024-02-21T11:53:09;6.97;;;3.20;;
15258;SDS011;34462;51.368;12.364;2024-02-21T11:55:38;4.80;;;3.50;;
15258;SDS011;34462;51.368;12.364;2024-02-21T11:58:06;5.77;;;3.17;;
15258;SDS011;34462;51.368;12.364;2024-02-21T12:00:36;5.78;;;2.88;;
15258;SDS011;34462;51.368;12.364;2024-02-21T12:03:04;5.22;;;3.10;;
15258;SDS011;34462;51.368;12.364;2024-02-21T12:05:32;4.13;;;2.93;;
15258;SDS011;34462;51.368;12.364;2024-02-21T12:08:02;6.97;;;3.07;;
15258;SDS011;34462;51.368;12.364;2024-02-21T12:10:31;7.63;;;3.10;;
15258;SDS011;34462;51.368;12.364;2024-02-21T12:13:06;4.43;;;2.60;;
15258;SDS011;34462;51.368;12.364;2024-02-21T12:15:38;4.72;;;2.67;;
15258;SDS011;34462;51.368;12.364;2024-02-21T12:18:07;4.47;;;2.40;;
15258;SDS011;34462;51.368;12.364;2024-02-21T12:20:37;5.20;;;2.38;;
15258;SDS011;34462;51.368;12.364;2024-02-21T12:23:08;3.33;;;2.17;;
15258;SDS011;34462;51.368;12.364;2024-02-21T12:25:38;3.05;;;2.08;;
15258;SDS011;34462;51.368;12.364;2024-02-21T12:28:07;2.40;;;2.15;;
15258;SDS011;34462;51.368;12.364;2024-02-21T12:30:35;3.60;;;2.50;;
15258;SDS011;34462;51.368;12.364;2024-02-21T12:33:06;6.47;;;2.87;;
15258;SDS011;34462;51.368;12.364;2024-02-21T12:35:35;3.47;;;2.78;;
15258;SDS011;34462;51.368;12.364;2024-02-21T12:38:03;5.47;;;2.37;;
15258;SDS011;34462;51.368;12.364;2024-02-21T12:40:31;4.47;;;2.60;;
15258;SDS011;34462;51.368;12.364;2024-02-21T12:43:00;3.60;;;2.57;;
15258;SDS011;34462;51.368;12.364;2024-02-21T12:45:29;3.20;;;2.47;;
15258;SDS011;34462;51.368;12.364;2024-02-21T12:47:59;5.87;;;2.60;;
15258;SDS011;34462;51.368;12.364;2024-02-21T12:50:28;4.27;;;2.40;;
15258;SDS011;34462;51.368;12.364;2024-02-21T12:52:57;4.37;;;2.70;;
15258;SDS011;34462;51.368;12.364;2024-02-21T12:55:26;5.30;;;2.63;;
15258;SDS011;34462;51.368;12.364;2024-02-21T12:57:54;3.73;;;2.43;;
15258;SDS011;34462;51.368;12.364;2024-02-21T13:00:23;3.65;;;2.67;;
15258;SDS011;34462;51.368;12.364;2024-02-21T13:02:54;3.40;;;2.67;;
15258;SDS011;34462;51.368;12.364;2024-02-21T13:05:24;3.67;;;2.45;;
15258;SDS011;34462;51.368;12.364;2024-02-21T13:07:52;4.57;;;2.73;;
15258;SDS011;34462;51.368;12.364;2024-02-21T13:10:20;3.97;;;2.80;;
15258;SDS011;34462;51.368;12.364;2024-02-21T13:12:49;3.20;;;2.60;;
15258;SDS011;34462;51.368;12.364;2024-02-21T13:15:17;4.67;;;2.90;;
15258;SDS011;34462;51.368;12.364;2024-02-21T13:17:47;4.23;;;2.87;;
15258;SDS011;34462;51.368;12.364;2024-02-21T13:20:16;4.30;;;2.53;;
15258;SDS011;34462;51.368;12.364;2024-02-21T13:22:46;4.72;;;2.80;;
15258;SDS011;34462;51.368;12.364;2024-02-21T13:25:14;5.63;;;2.72;;
15258;SDS011;34462;51.368;12.364;2024-02-21T13:27:46;3.95;;;2.70;;
15258;SDS011;34462;51.368;12.364;2024-02-21T13:30:15;5.28;;;3.20;;
15258;SDS011;34462;51.368;12.364;2024-02-21T13:32:44;4.90;;;3.20;;
15258;SDS011;34462;51.368;12.364;2024-02-21T13:35:13;6.10;;;2.90;;
15258;SDS011;34462;51.368;12.364;2024-02-21T13:37:42;4.93;;;2.90;;
15258;SDS011;34462;51.368;12.364;2024-02-21T13:40:12;2.97;;;2.40;;
15258;SDS011;34462;51.368;12.364;2024-02-21T13:42:41;4.72;;;2.70;;
15258;SDS011;34462;51.368;12.364;2024-02-21T13:45:09;3.95;;;2.72;;
15258;SDS011;34462;51.368;12.364;2024-02-21T13:47:37;4.47;;;2.83;;
15258;SDS011;34462;51.368;12.364;2024-02-21T13:50:06;3.17;;;2.35;;
15258;SDS011;34462;51.368;12.364;2024-02-21T13:52:37;4.80;;;2.30;;
15258;SDS011;34462;51.368;12.364;2024-02-21T13:55:05;2.87;;;2.63;;
15258;SDS011;34462;51.368;12.364;2024-02-21T13:57:36;5.72;;;2.47;;
15258;SDS011;34462;51.368;12.364;2024-02-21T14:00:04;4.50;;;2.40;;
15258;SDS011;34462;51.368;12.364;2024-02-21T14:02:37;5.93;;;2.70;;
15258;SDS011;34462;51.368;12.364;2024-02-21T14:05:06;4.53;;;2.57;;
15258;SDS011;34462;51.368;12.364;2024-02-21T14:07:35;3.37;;;2.50;;
15258;SDS011;34462;51.368;12.364;2024-02-21T14:10:04;3.90;;;2.80;;
15258;SDS011;34462;51.368;12.364;2024-02-21T14:12:37;3.72;;;2.60;;
15258;SDS011;34462;51.368;12.364;2024-02-21T14:15:06;7.10;;;3.13;;
15258;SDS011;34462;51.368;12.364;2024-02-21T14:17:36;3.87;;;2.63;;
15258;SDS011;34462;51.368;12.364;2024-02-21T14:20:06;5.40;;;2.80;;
15258;SDS011;34462;51.368;12.364;2024-02-21T14:22:37;5.20;;;2.60;;
15258;SDS011;34462;51.368;12.364;2024-02-21T14:25:06;4.20;;;2.50;;
15258;SDS011;34462;51.368;12.364;2024-02-21T14:27:35;5.03;;;2.42;;
15258;SDS011;34462;51.368;12.364;2024-02-21T14:30:05;5.00;;;2.67;;
15258;SDS011;34462;51.368;12.364;2024-02-21T14:32:37;3.87;;;2.40;;
15258;SDS011;34462;51.368;12.364;2024-02-21T14:35:05;4.70;;;2.60;;
15258;SDS011;34462;51.368;12.364;2024-02-21T14:37:34;5.53;;;2.77;;
15258;SDS011;34462;51.368;12.364;2024-02-21T14:40:03;4.37;;;2.53;;
15258;SDS011;34462;51.368;12.364;2024-02-21T14:42:33;4.10;;;2.40;;
15258;SDS011;34462;51.368;12.364;2024-02-21T14:45:03;4.07;;;2.30;;